Time;durP1;ratioP1;P1;durP2;ratioP2;P2;SDS_P1;SDS_P2;PMS_P1;PMS_P2;Temp;Humidity;BMP_temperature;BMP_pressure;BME280_temperature;BME280_humidity;BME280_pressure;Samples;Min_cycle;Max_cycle;Signal;HPM_P1;HPM_P2
2021/07/10 00:01:51;;;;;;;5.57;2.70;;;;;;;;;;6976905;28;20057;-87
2021/07/10 00:05:13;;;;;;;6.85;2.78;;;;;;;;;;6977396;28;20487;-87
2021/07/10 00:08:33;;;;;;;9.88;3.40;;;;;;;;;;6977500;28;20044;-88
2021/07/10 00:11:54;;;;;;;8.43;3.15;;;;;;;;;;6977094;28;20115;-85
2021/07/10 00:15:17;;;;;;;11.18;3.55;;;;;;;;;;6975894;28;20546;-80
2021/07/10 00:18:38;;;;;;;19.35;3.60;;;;;;;;;;6976231;28;20118;-81
2021/07/10 00:21:58;;;;;;;9.23;3.60;;;;;;;;;;6975729;28;20080;-80
2021/07/10 00:25:19;;;;;;;16.02;3.55;;;;;;;;;;6972249;28;20045;-80
2021/07/10 00:28:40;;;;;;;13.95;3.70;;;;;;;;;;6974493;28;20060;-80
2021/07/10 00:32:00;;;;;;;15.27;3.05;;;;;;;;;;6975329;28;20114;-79
2021/07/10 00:35:21;;;;;;;15.38;2.90;;;;;;;;;;6976473;28;20045;-80
2021/07/10 00:38:41;;;;;;;6.90;3.00;;;;;;;;;;6976317;28;20068;-80
2021/07/10 00:42:02;;;;;;;12.65;3.20;;;;;;;;;;6976431;28;20056;-83
2021/07/10 00:45:22;;;;;;;9.85;2.95;;;;;;;;;;6976840;28;20441;-79
2021/07/10 00:48:43;;;;;;;10.75;3.65;;;;;;;;;;6974604;28;20080;-80
2021/07/10 00:52:04;;;;;;;8.10;2.58;;;;;;;;;;6976561;28;20045;-80
2021/07/10 00:55:24;;;;;;;6.15;2.67;;;;;;;;;;6975989;28;20080;-81
2021/07/10 00:58:45;;;;;;;5.30;2.85;;;;;;;;;;6976142;28;20041;-81
2021/07/10 01:02:06;;;;;;;8.23;2.92;;;;;;;;;;6973754;28;20075;-79
2021/07/10 01:05:28;;;;;;;7.97;2.83;;;;;;;;;;6974730;28;20060;-80
2021/07/10 01:08:49;;;;;;;6.38;2.80;;;;;;;;;;6976190;28;20120;-80
2021/07/10 01:12:09;;;;;;;6.97;2.60;;;;;;;;;;6975577;28;20102;-80
2021/07/10 01:15:30;;;;;;;6.40;2.30;;;;;;;;;;6978723;28;20053;-81
2021/07/10 01:18:50;;;;;;;4.32;2.15;;;;;;;;;;6980530;28;20049;-81
2021/07/10 01:22:10;;;;;;;6.40;2.30;;;;;;;;;;6980454;28;20506;-81
2021/07/10 01:25:31;;;;;;;6.70;2.10;;;;;;;;;;6980691;28;20060;-81
2021/07/10 01:28:51;;;;;;;8.25;2.40;;;;;;;;;;6970928;23;20081;-79
2021/07/10 01:32:16;;;;;;;5.00;2.40;;;;;;;;;;6944554;28;20484;-79
2021/07/10 01:35:37;;;;;;;7.82;2.50;;;;;;;;;;6944891;28;20041;-78
2021/07/10 01:38:58;;;;;;;5.53;2.60;;;;;;;;;;6944302;28;20042;-78
2021/07/10 01:42:19;;;;;;;14.82;2.40;;;;;;;;;;6944563;28;20192;-78
2021/07/10 01:45:40;;;;;;;5.45;2.33;;;;;;;;;;6944304;28;20403;-78
2021/07/10 01:49:00;;;;;;;3.70;2.05;;;;;;;;;;6944206;28;20128;-77
2021/07/10 01:52:21;;;;;;;3.33;1.98;;;;;;;;;;6944241;28;20049;-78
2021/07/10 01:55:42;;;;;;;5.55;1.88;;;;;;;;;;6943920;28;20124;-77
2021/07/10 01:59:02;;;;;;;4.40;2.17;;;;;;;;;;6943980;28;20049;-78
2021/07/10 02:02:23;;;;;;;5.80;2.88;;;;;;;;;;6943983;28;20037;-78
2021/07/10 02:05:43;;;;;;;2.97;1.95;;;;;;;;;;6943754;28;20049;-78
2021/07/10 02:09:04;;;;;;;5.50;2.20;;;;;;;;;;6943908;28;20221;-77
2021/07/10 02:12:25;;;;;;;3.47;1.90;;;;;;;;;;6943481;28;20053;-79
2021/07/10 02:15:45;;;;;;;5.35;2.20;;;;;;;;;;6943826;28;20391;-80
2021/07/10 02:19:06;;;;;;;5.07;2.50;;;;;;;;;;6943703;28;20061;-79
2021/07/10 02:22:26;;;;;;;3.60;1.88;;;;;;;;;;6943588;28;20046;-78
2021/07/10 02:25:47;;;;;;;7.53;2.33;;;;;;;;;;6942690;28;20049;-78
2021/07/10 02:29:07;;;;;;;27.05;3.15;;;;;;;;;;6943268;28;20085;-78
2021/07/10 02:32:28;;;;;;;5.55;2.08;;;;;;;;;;6943326;28;20077;-78
2021/07/10 02:35:49;;;;;;;9.05;1.85;;;;;;;;;;6943354;28;20049;-78
2021/07/10 02:39:10;;;;;;;5.65;2.30;;;;;;;;;;6943296;28;20068;-78
2021/07/10 02:42:30;;;;;;;5.93;2.20;;;;;;;;;;6942982;28;20054;-78
2021/07/10 02:45:50;;;;;;;4.25;1.73;;;;;;;;;;6942934;28;20037;-79
2021/07/10 02:49:11;;;;;;;6.07;2.03;;;;;;;;;;6942888;28;20042;-77
2021/07/10 02:52:31;;;;;;;4.60;1.85;;;;;;;;;;6942706;28;20063;-78
2021/07/10 02:55:52;;;;;;;3.45;1.85;;;;;;;;;;6942573;28;20088;-77
2021/07/10 02:59:12;;;;;;;5.65;2.20;;;;;;;;;;6938904;28;20046;-78
2021/07/10 03:02:33;;;;;;;2.40;1.70;;;;;;;;;;6932864;28;20084;-78
2021/07/10 03:05:53;;;;;;;2.47;1.70;;;;;;;;;;6939719;28;20050;-78
2021/07/10 03:09:13;;;;;;;3.47;1.80;;;;;;;;;;6931460;28;20100;-78
2021/07/10 03:12:34;;;;;;;3.15;1.90;;;;;;;;;;6942274;28;20069;-79
2021/07/10 03:15:55;;;;;;;4.93;1.90;;;;;;;;;;6942147;28;20056;-77
2021/07/10 03:19:15;;;;;;;4.85;1.80;;;;;;;;;;6942545;28;20084;-78
2021/07/10 03:22:36;;;;;;;3.50;1.88;;;;;;;;;;6942294;28;20042;-77
2021/07/10 03:25:56;;;;;;;4.35;1.88;;;;;;;;;;6942313;28;20076;-77
2021/07/10 03:29:18;;;;;;;3.08;1.77;;;;;;;;;;6942117;28;20391;-77
2021/07/10 03:32:39;;;;;;;3.50;1.92;;;;;;;;;;6940364;28;20057;-78
2021/07/10 03:36:01;;;;;;;3.38;1.95;;;;;;;;;;6942118;28;20057;-76
2021/07/10 03:39:22;;;;;;;3.33;1.90;;;;;;;;;;6942082;28;20057;-77
2021/07/10 03:42:42;;;;;;;2.30;1.63;;;;;;;;;;6941548;28;20045;-77
2021/07/10 03:46:03;;;;;;;2.13;1.40;;;;;;;;;;6942012;28;20549;-77
2021/07/10 03:49:23;;;;;;;2.88;1.70;;;;;;;;;;6941132;28;20045;-78
2021/07/10 03:52:44;;;;;;;3.38;1.70;;;;;;;;;;6941311;28;20104;-76
2021/07/10 03:56:04;;;;;;;3.83;1.50;;;;;;;;;;6941681;28;20057;-77
2021/07/10 03:59:25;;;;;;;5.70;1.85;;;;;;;;;;6941267;28;20061;-78
2021/07/10 04:02:45;;;;;;;5.80;1.73;;;;;;;;;;6941346;28;20045;-77
2021/07/10 04:06:06;;;;;;;4.53;1.90;;;;;;;;;;6941350;28;20056;-79
2021/07/10 04:09:26;;;;;;;3.50;1.70;;;;;;;;;;6941297;28;20120;-76
2021/07/10 04:12:47;;;;;;;4.35;1.80;;;;;;;;;;6940943;28;20045;-77
2021/07/10 04:16:07;;;;;;;2.88;1.55;;;;;;;;;;6941417;28;20045;-77
2021/07/10 04:19:28;;;;;;;2.83;1.65;;;;;;;;;;6940725;28;20081;-77
2021/07/10 04:22:49;;;;;;;3.15;1.50;;;;;;;;;;6940998;28;20967;-77
2021/07/10 04:26:09;;;;;;;1.88;1.33;;;;;;;;;;6940754;28;20064;-77
2021/07/10 04:29:29;;;;;;;1.90;1.40;;;;;;;;;;6941130;28;20224;-77
2021/07/10 04:32:50;;;;;;;1.90;1.20;;;;;;;;;;6940963;28;20414;-77
2021/07/10 04:36:11;;;;;;;4.40;1.60;;;;;;;;;;6940732;28;20562;-78
2021/07/10 04:39:32;;;;;;;2.65;1.88;;;;;;;;;;6940862;28;20054;-78
2021/07/10 04:42:52;;;;;;;2.53;1.80;;;;;;;;;;6940366;28;20136;-77
2021/07/10 04:46:13;;;;;;;2.78;1.90;;;;;;;;;;6940222;28;20068;-78
2021/07/10 04:49:33;;;;;;;2.75;1.73;;;;;;;;;;6939984;28;20468;-77
2021/07/10 04:52:53;;;;;;;2.63;1.90;;;;;;;;;;6940229;28;20050;-78
2021/07/10 04:56:14;;;;;;;2.78;1.80;;;;;;;;;;6939843;28;20048;-77
2021/07/10 04:59:34;;;;;;;2.00;1.80;;;;;;;;;;6940281;28;20041;-77
2021/07/10 05:02:55;;;;;;;3.63;1.90;;;;;;;;;;6940444;28;20132;-78
2021/07/10 05:06:15;;;;;;;3.28;2.08;;;;;;;;;;6940365;28;20513;-76
2021/07/10 05:09:35;;;;;;;3.03;1.85;;;;;;;;;;6940190;28;20070;-76
2021/07/10 05:12:56;;;;;;;2.08;1.88;;;;;;;;;;6940050;28;20081;-78
2021/07/10 05:16:19;;;;;;;1.80;1.70;;;;;;;;;;6939688;28;20046;-77
2021/07/10 05:19:40;;;;;;;1.60;1.50;;;;;;;;;;6936268;28;20922;-78
2021/07/10 05:23:00;;;;;;;2.63;1.92;;;;;;;;;;6939795;28;20136;-78
2021/07/10 05:26:20;;;;;;;2.75;2.03;;;;;;;;;;6939644;28;20467;-78
2021/07/10 05:29:41;;;;;;;1.60;1.50;;;;;;;;;;6939948;28;20056;-78
2021/07/10 05:33:01;;;;;;;1.98;1.80;;;;;;;;;;6939711;28;20138;-78
2021/07/10 05:36:22;;;;;;;4.13;1.50;;;;;;;;;;6939633;28;20530;-78
2021/07/10 05:39:42;;;;;;;1.98;1.55;;;;;;;;;;6939458;28;20049;-79
2021/07/10 05:43:03;;;;;;;2.40;1.60;;;;;;;;;;6939618;28;20069;-85
2021/07/10 05:46:23;;;;;;;1.70;1.60;;;;;;;;;;6944819;28;20045;-82
2021/07/10 05:49:44;;;;;;;2.40;1.70;;;;;;;;;;6946313;28;20100;-82
2021/07/10 05:53:04;;;;;;;1.85;1.75;;;;;;;;;;6925595;28;20055;-79
2021/07/10 05:56:26;;;;;;;2.35;1.60;;;;;;;;;;6939553;28;20137;-78
2021/07/10 05:59:46;;;;;;;2.58;1.58;;;;;;;;;;6939263;28;20099;-78
2021/07/10 06:03:07;;;;;;;1.80;1.50;;;;;;;;;;6943944;28;20053;-77
2021/07/10 06:06:27;;;;;;;1.75;1.65;;;;;;;;;;6944153;28;20049;-78
2021/07/10 06:09:48;;;;;;;1.60;1.50;;;;;;;;;;6943649;28;20049;-77
2021/07/10 06:13:08;;;;;;;2.03;1.80;;;;;;;;;;6942479;28;20087;-78
2021/07/10 06:16:29;;;;;;;1.88;1.40;;;;;;;;;;6945481;28;20054;-83
2021/07/10 06:19:49;;;;;;;1.60;1.50;;;;;;;;;;6949623;28;20041;-83
2021/07/10 06:23:10;;;;;;;2.25;1.77;;;;;;;;;;6951261;28;20080;-85
2021/07/10 06:26:30;;;;;;;2.40;1.70;;;;;;;;;;6951030;28;20045;-85
2021/07/10 06:29:50;;;;;;;2.03;1.77;;;;;;;;;;6947559;28;20123;-84
2021/07/10 06:33:11;;;;;;;1.70;1.60;;;;;;;;;;6945702;28;20076;-79
2021/07/10 06:36:32;;;;;;;1.90;1.80;;;;;;;;;;6944880;28;20041;-78
2021/07/10 06:39:52;;;;;;;1.70;1.60;;;;;;;;;;6929068;28;20049;-78
2021/07/10 06:43:13;;;;;;;2.13;1.58;;;;;;;;;;6943176;28;20053;-78
2021/07/10 06:46:33;;;;;;;1.92;1.60;;;;;;;;;;6943102;28;20057;-78
2021/07/10 06:49:53;;;;;;;1.48;1.38;;;;;;;;;;6940441;28;20073;-78
2021/07/10 06:53:19;;;;;;;1.73;1.63;;;;;;;;;;6942343;28;20411;-79
2021/07/10 06:56:40;;;;;;;2.13;1.40;;;;;;;;;;6942236;28;20045;-79
2021/07/10 07:00:00;;;;;;;2.10;1.55;;;;;;;;;;6941785;28;20049;-78
2021/07/10 07:03:21;;;;;;;1.50;1.40;;;;;;;;;;6942622;28;20049;-78
2021/07/10 07:06:41;;;;;;;2.47;1.58;;;;;;;;;;6942458;28;20057;-80
2021/07/10 07:10:04;;;;;;;1.52;1.40;;;;;;;;;;6941647;28;20663;-78
2021/07/10 07:13:24;;;;;;;2.00;1.80;;;;;;;;;;6941660;28;20049;-78
2021/07/10 07:16:45;;;;;;;2.13;1.90;;;;;;;;;;6942193;28;20448;-79
2021/07/10 07:20:07;;;;;;;2.28;1.90;;;;;;;;;;6923832;28;20487;-78
2021/07/10 07:23:27;;;;;;;11.60;1.67;;;;;;;;;;6923570;28;20053;-78
2021/07/10 07:26:49;;;;;;;3.53;1.90;;;;;;;;;;6941614;28;20137;-78
2021/07/10 07:30:10;;;;;;;5.55;1.60;;;;;;;;;;6941997;28;20056;-79
2021/07/10 07:33:31;;;;;;;8.13;1.70;;;;;;;;;;6941861;28;20053;-78
2021/07/10 07:36:51;;;;;;;1.70;1.50;;;;;;;;;;6941613;28;20136;-78
2021/07/10 07:40:14;;;;;;;3.83;1.80;;;;;;;;;;6942086;28;20140;-78
2021/07/10 07:43:34;;;;;;;2.25;1.65;;;;;;;;;;6941732;28;20464;-78
2021/07/10 07:46:55;;;;;;;5.47;1.52;;;;;;;;;;6941540;28;20068;-77
2021/07/10 07:50:16;;;;;;;1.80;1.50;;;;;;;;;;6941489;28;20046;-80
2021/07/10 07:53:37;;;;;;;5.40;1.50;;;;;;;;;;6941611;28;20068;-78
2021/07/10 07:56:58;;;;;;;3.97;1.45;;;;;;;;;;6941860;28;20098;-79
2021/07/10 08:00:22;;;;;;;2.05;1.50;;;;;;;;;;6941519;28;20045;-78
2021/07/10 08:03:43;;;;;;;4.93;1.60;;;;;;;;;;6941235;28;20411;-78
2021/07/10 08:07:03;;;;;;;3.47;1.35;;;;;;;;;;6941713;28;20487;-79
2021/07/10 08:10:24;;;;;;;2.42;1.60;;;;;;;;;;6941192;28;20080;-79
2021/07/10 08:13:44;;;;;;;1.58;1.40;;;;;;;;;;6941432;28;20060;-80
2021/07/10 08:17:05;;;;;;;3.67;1.70;;;;;;;;;;6942258;28;20084;-81
2021/07/10 08:20:26;;;;;;;1.65;1.40;;;;;;;;;;6940777;28;20496;-79
2021/07/10 08:23:46;;;;;;;6.38;1.55;;;;;;;;;;6941461;28;20045;-82
2021/07/10 08:27:07;;;;;;;7.57;1.25;;;;;;;;;;6942221;28;20569;-83
2021/07/10 08:30:28;;;;;;;7.75;1.20;;;;;;;;;;6941067;28;20445;-82
2021/07/10 08:33:48;;;;;;;3.70;1.10;;;;;;;;;;6940532;28;20046;-82
2021/07/10 08:37:08;;;;;;;1.95;1.27;;;;;;;;;;6940461;28;20040;-82
2021/07/10 08:40:29;;;;;;;2.55;1.30;;;;;;;;;;6922209;28;20124;-82
2021/07/10 08:43:50;;;;;;;2.65;1.30;;;;;;;;;;6946758;28;20045;-82
2021/07/10 08:47:14;;;;;;;4.95;1.52;;;;;;;;;;6940990;28;20045;-81
2021/07/10 08:50:34;;;;;;;1.83;1.42;;;;;;;;;;6923118;28;20049;-83
2021/07/10 08:53:54;;;;;;;2.78;1.48;;;;;;;;;;6940597;28;20088;-82
2021/07/10 08:57:15;;;;;;;3.03;1.67;;;;;;;;;;6941193;28;20063;-83
2021/07/10 09:00:38;;;;;;;3.10;1.58;;;;;;;;;;6926953;28;20056;-83
2021/07/10 09:03:58;;;;;;;3.22;1.25;;;;;;;;;;6940720;28;20068;-84
2021/07/10 09:07:19;;;;;;;2.47;1.60;;;;;;;;;;6945301;28;20460;-84
2021/07/10 09:10:41;;;;;;;5.90;1.50;;;;;;;;;;6941077;28;20046;-83
2021/07/10 09:14:02;;;;;;;1.08;1.08;;;;;;;;;;6941516;28;20053;-83
2021/07/10 09:17:26;;;;;;;3.60;1.63;;;;;;;;;;6941353;28;20044;-83
2021/07/10 09:20:48;;;;;;;6.57;1.23;;;;;;;;;;6940257;28;20053;-83
2021/07/10 09:24:11;;;;;;;1.88;1.40;;;;;;;;;;6941022;28;20049;-83
2021/07/10 09:27:33;;;;;;;2.75;1.85;;;;;;;;;;6940651;28;20049;-83
2021/07/10 09:30:53;;;;;;;5.72;1.63;;;;;;;;;;6921420;28;20045;-84
2021/07/10 09:34:17;;;;;;;5.60;1.50;;;;;;;;;;6940790;28;20120;-83
2021/07/10 09:37:38;;;;;;;3.08;1.27;;;;;;;;;;6945624;28;20050;-83
2021/07/10 09:41:05;;;;;;;2.97;1.38;;;;;;;;;;6945327;28;20049;-84
2021/07/10 09:44:26;;;;;;;2.30;1.35;;;;;;;;;;6945378;28;20057;-83
2021/07/10 09:47:46;;;;;;;2.03;1.40;;;;;;;;;;6946500;28;20049;-84
2021/07/10 09:51:26;;;;;;;1.60;1.45;;;;;;;;;;6948851;28;20088;-83
2021/07/10 09:54:55;;;;;;;5.65;1.30;;;;;;;;;;6949330;28;20487;-82
2021/07/10 09:58:31;;;;;;;2.20;1.52;;;;;;;;;;6950312;28;20041;-83
2021/07/10 10:01:52;;;;;;;2.22;1.60;;;;;;;;;;6950374;28;20068;-84
2021/07/10 10:05:18;;;;;;;5.47;1.30;;;;;;;;;;6948693;28;20057;-85
2021/07/10 10:08:43;;;;;;;3.47;1.75;;;;;;;;;;6947665;28;20076;-84
2021/07/10 10:12:12;;;;;;;1.75;1.23;;;;;;;;;;6946703;28;20061;-85
2021/07/10 10:15:52;;;;;;;1.50;1.40;;;;;;;;;;6930805;28;20064;-83
2021/07/10 10:19:15;;;;;;;2.35;1.17;;;;;;;;;;6934698;28;20104;-84
2021/07/10 10:22:36;;;;;;;1.58;1.40;;;;;;;;;;6950959;28;20053;-86
2021/07/10 10:25:57;;;;;;;2.92;1.67;;;;;;;;;;6915815;28;20056;-86
2021/07/10 10:29:22;;;;;;;5.18;1.50;;;;;;;;;;6953391;28;20108;-94
2021/07/10 10:32:43;;;;;;;2.22;1.38;;;;;;;;;;6951069;28;20061;-85
2021/07/10 10:36:04;;;;;;;2.40;1.50;;;;;;;;;;6932974;28;20141;-86
2021/07/10 10:39:28;;;;;;;1.67;1.20;;;;;;;;;;6933678;28;20045;-85
2021/07/10 10:42:55;;;;;;;2.05;1.45;;;;;;;;;;6952135;28;20084;-86
2021/07/10 10:46:23;;;;;;;2.58;1.30;;;;;;;;;;6935347;28;20140;-92
2021/07/10 10:49:46;;;;;;;2.30;1.40;;;;;;;;;;6952414;28;20555;-84
2021/07/10 10:53:08;;;;;;;5.13;1.13;;;;;;;;;;6949583;28;20081;-86
2021/07/10 10:56:39;;;;;;;2.78;1.58;;;;;;;;;;6950218;28;20144;-84
2021/07/10 10:59:59;;;;;;;1.60;1.25;;;;;;;;;;6951157;28;20042;-89
2021/07/10 11:03:20;;;;;;;1.30;1.20;;;;;;;;;;6946890;28;20045;-86
2021/07/10 11:06:40;;;;;;;2.25;1.58;;;;;;;;;;6946706;28;20038;-90
2021/07/10 11:10:09;;;;;;;2.25;1.60;;;;;;;;;;6948611;28;20207;-86
2021/07/10 11:13:30;;;;;;;;;;;;;;;;;;6944646;28;20041;-87
2021/07/10 11:17:09;;;;;;;1.83;1.30;;;;;;;;;;6948089;28;19942;-90
2021/07/10 11:20:42;;;;;;;2.15;1.10;;;;;;;;;;6951474;28;20462;-90
2021/07/10 11:24:20;;;;;;;2.60;1.40;;;;;;;;;;6948928;28;20091;-89
2021/07/10 11:27:41;;;;;;;1.13;1.00;;;;;;;;;;6946052;28;20045;-82
2021/07/10 11:31:05;;;;;;;2.80;1.63;;;;;;;;;;6948566;28;20048;-80
2021/07/10 11:34:35;;;;;;;1.58;1.20;;;;;;;;;;6941837;28;20091;-80
2021/07/10 11:37:56;;;;;;;1.48;1.38;;;;;;;;;;6926489;28;20057;-79
2021/07/10 11:41:30;;;;;;;1.52;1.23;;;;;;;;;;6941842;28;20052;-79
2021/07/10 11:44:52;;;;;;;3.22;1.55;;;;;;;;;;6945199;28;20045;-80
2021/07/10 11:48:21;;;;;;;1.15;1.08;;;;;;;;;;6944314;28;20495;-80
2021/07/10 11:51:42;;;;;;;1.40;1.30;;;;;;;;;;6944485;28;20084;-79
2021/07/10 11:55:06;;;;;;;1.30;1.20;;;;;;;;;;6924449;28;20045;-79
2021/07/10 11:58:28;;;;;;;1.50;1.40;;;;;;;;;;6925630;28;20079;-81
2021/07/10 12:01:49;;;;;;;1.65;1.55;;;;;;;;;;6945322;28;20103;-80
2021/07/10 12:05:11;;;;;;;1.45;1.35;;;;;;;;;;6945834;28;20129;-80
2021/07/10 12:08:31;;;;;;;2.17;1.33;;;;;;;;;;6945440;28;20415;-80
2021/07/10 12:11:53;;;;;;;1.30;1.20;;;;;;;;;;6945087;28;20514;-81
2021/07/10 12:15:16;;;;;;;1.33;1.23;;;;;;;;;;6927349;28;20045;-79
2021/07/10 12:18:37;;;;;;;1.15;1.10;;;;;;;;;;6945305;28;20519;-79
2021/07/10 12:22:06;;;;;;;2.10;1.30;;;;;;;;;;6951173;28;20178;-80
2021/07/10 12:25:49;;;;;;;1.30;1.20;;;;;;;;;;6948517;28;20048;-79
2021/07/10 12:29:09;;;;;;;1.25;1.15;;;;;;;;;;6941447;28;20561;-80
2021/07/10 12:32:32;;;;;;;5.55;1.30;;;;;;;;;;6941618;28;20045;-80
2021/07/10 12:36:06;;;;;;;1.30;1.20;;;;;;;;;;6923687;28;20487;-79
2021/07/10 12:39:28;;;;;;;1.10;1.10;;;;;;;;;;6939138;28;20056;-79
2021/07/10 12:42:55;;;;;;;1.75;1.15;;;;;;;;;;6941264;28;20491;-79
2021/07/10 12:46:15;;;;;;;1.45;1.35;;;;;;;;;;6941138;28;20049;-80
2021/07/10 12:49:48;;;;;;;1.58;1.17;;;;;;;;;;6941967;28;20139;-81
2021/07/10 12:53:11;;;;;;;1.48;1.27;;;;;;;;;;6944022;28;20050;-82
2021/07/10 12:56:42;;;;;;;1.20;1.10;;;;;;;;;;6931786;28;20538;-88
2021/07/10 13:00:06;;;;;;;2.38;1.20;;;;;;;;;;6931889;28;20064;-91
2021/07/10 13:03:27;;;;;;;1.38;1.27;;;;;;;;;;6948844;28;20511;-88
2021/07/10 13:06:47;;;;;;;1.48;1.17;;;;;;;;;;6946766;28;20060;-82
2021/07/10 13:10:23;;;;;;;1.40;1.30;;;;;;;;;;6937500;28;20080;-84
2021/07/10 13:13:53;;;;;;;2.22;1.33;;;;;;;;;;6947509;28;20411;-81
2021/07/10 13:17:14;;;;;;;2.63;1.23;;;;;;;;;;6932203;28;20042;-80
2021/07/10 13:20:36;;;;;;;1.17;1.10;;;;;;;;;;6949563;28;20128;-82
2021/07/10 13:23:58;;;;;;;1.60;1.20;;;;;;;;;;6951024;28;20516;-81
2021/07/10 13:27:29;;;;;;;2.22;1.27;;;;;;;;;;6967898;22;20057;-92
2021/07/10 13:30:50;;;;;;;1.45;1.15;;;;;;;;;;6953603;28;20049;-91
2021/07/10 13:34:15;;;;;;;2.75;1.17;;;;;;;;;;6954375;28;20041;-89
2021/07/10 13:37:36;;;;;;;1.48;1.38;;;;;;;;;;6971758;28;20118;-89
2021/07/10 13:40:56;;;;;;;1.15;1.13;;;;;;;;;;6953756;28;20040;-89
2021/07/10 13:44:27;;;;;;;1.45;1.35;;;;;;;;;;6969052;28;20072;-89
2021/07/10 13:47:48;;;;;;;2.90;1.20;;;;;;;;;;6945339;28;20049;-90
2021/07/10 13:51:12;;;;;;;1.33;1.15;;;;;;;;;;6939140;28;20128;-93
2021/07/10 13:54:32;;;;;;;2.60;1.20;;;;;;;;;;6964878;28;20119;-90
2021/07/10 13:57:54;;;;;;;2.40;1.30;;;;;;;;;;6959043;28;20053;-91
2021/07/10 14:01:15;;;;;;;1.35;1.10;;;;;;;;;;6942962;28;20056;-89
2021/07/10 14:04:35;;;;;;;1.25;1.08;;;;;;;;;;6963574;28;20053;-91
2021/07/10 14:08:03;;;;;;;1.50;1.40;;;;;;;;;;6952017;28;20044;-89
2021/07/10 14:11:24;;;;;;;1.50;1.00;;;;;;;;;;6956120;28;20490;-90
2021/07/10 14:14:44;;;;;;;2.83;1.00;;;;;;;;;;6963108;28;20044;-91
2021/07/10 14:18:05;;;;;;;1.00;1.00;;;;;;;;;;6944647;28;20047;-92
2021/07/10 14:21:25;;;;;;;1.20;1.10;;;;;;;;;;6947501;28;20144;-90
2021/07/10 14:24:46;;;;;;;1.48;1.13;;;;;;;;;;6946223;28;20147;-92
2021/07/10 14:28:06;;;;;;;1.20;1.10;;;;;;;;;;6952865;28;20157;-90
2021/07/10 14:31:27;;;;;;;1.23;1.13;;;;;;;;;;6955754;28;20486;-89
2021/07/10 14:34:48;;;;;;;1.15;1.10;;;;;;;;;;6956349;28;20056;-92
2021/07/10 14:38:08;;;;;;;1.20;1.00;;;;;;;;;;6969002;28;20573;-91
2021/07/10 14:41:30;;;;;;;1.70;1.15;;;;;;;;;;6939439;28;20136;-89
2021/07/10 14:44:51;;;;;;;2.53;1.27;;;;;;;;;;6941663;28;20103;-92
2021/07/10 14:48:12;;;;;;;3.90;1.15;;;;;;;;;;6953719;28;20049;-93
2021/07/10 14:51:32;;;;;;;1.38;1.00;;;;;;;;;;6948481;28;20045;-90
2021/07/10 14:54:53;;;;;;;1.08;1.08;;;;;;;;;;6952670;28;20041;-92
2021/07/10 14:58:14;;;;;;;1.02;0.98;;;;;;;;;;6942903;28;20119;-92
2021/07/10 15:01:34;;;;;;;1.17;1.08;;;;;;;;;;6947068;28;20045;-90
2021/07/10 15:04:57;;;;;;;1.23;1.13;;;;;;;;;;6951711;28;20495;-92
2021/07/10 15:08:18;;;;;;;1.10;1.10;;;;;;;;;;6956600;28;20064;-91
2021/07/10 15:11:39;;;;;;;1.20;1.10;;;;;;;;;;6948372;28;20072;-92
2021/07/10 15:15:02;;;;;;;1.38;1.13;;;;;;;;;;6950467;28;20045;-92
2021/07/10 15:18:23;;;;;;;1.42;1.27;;;;;;;;;;6948031;28;20056;-93
2021/07/10 15:21:43;;;;;;;2.88;0.90;;;;;;;;;;6951414;28;20056;-89
2021/07/10 15:25:18;;;;;;;1.30;1.20;;;;;;;;;;6968445;28;20104;-92
2021/07/10 15:28:39;;;;;;;1.45;1.27;;;;;;;;;;6937409;28;20061;-90
2021/07/10 15:31:59;;;;;;;1.63;1.20;;;;;;;;;;6967700;28;20044;-89
2021/07/10 15:35:21;;;;;;;1.80;1.13;;;;;;;;;;6966896;28;20053;-92
2021/07/10 15:38:42;;;;;;;0.90;0.90;;;;;;;;;;6938553;28;20040;-93
2021/07/10 15:42:02;;;;;;;0.90;0.90;;;;;;;;;;6951896;28;20517;-90
2021/07/10 15:45:24;;;;;;;1.05;1.00;;;;;;;;;;6952258;28;20136;-93
2021/07/10 15:48:44;;;;;;;1.00;0.90;;;;;;;;;;6953087;28;20059;-93
2021/07/10 15:52:05;;;;;;;1.17;1.08;;;;;;;;;;6952630;28;20053;-92
2021/07/10 15:55:27;;;;;;;0.98;0.98;;;;;;;;;;6951556;28;20056;-90
2021/07/10 15:58:47;;;;;;;1.13;1.10;;;;;;;;;;6960669;28;20057;-92
2021/07/10 16:02:09;;;;;;;1.02;0.90;;;;;;;;;;6951144;28;20095;-90
2021/07/10 16:05:32;;;;;;;3.28;1.25;;;;;;;;;;6942680;28;20046;-88
2021/07/10 16:08:53;;;;;;;1.60;1.30;;;;;;;;;;6967641;28;20049;-90
2021/07/10 16:12:13;;;;;;;1.45;1.35;;;;;;;;;;6967390;28;20438;-90
2021/07/10 16:15:35;;;;;;;2.35;1.42;;;;;;;;;;6941355;28;20095;-88
2021/07/10 16:18:55;;;;;;;4.28;1.42;;;;;;;;;;6958819;28;20107;-89
2021/07/10 16:22:16;;;;;;;1.50;1.40;;;;;;;;;;6964915;28;20049;-89
2021/07/10 16:25:36;;;;;;;1.40;1.20;;;;;;;;;;6958059;28;20071;-86
2021/07/10 16:28:57;;;;;;;2.55;1.45;;;;;;;;;;6957277;28;20076;-85
2021/07/10 16:32:17;;;;;;;3.80;1.52;;;;;;;;;;6964505;28;20059;-86
2021/07/10 16:35:38;;;;;;;1.50;1.35;;;;;;;;;;6964754;28;20060;-86
2021/07/10 16:38:58;;;;;;;4.53;1.38;;;;;;;;;;6958003;28;20049;-86
2021/07/10 16:42:19;;;;;;;2.35;1.40;;;;;;;;;;6958788;28;20053;-85
2021/07/10 16:45:39;;;;;;;3.40;1.52;;;;;;;;;;6966676;28;20052;-86
2021/07/10 16:49:00;;;;;;;3.88;1.42;;;;;;;;;;6967798;28;20126;-86
2021/07/10 16:52:20;;;;;;;3.13;1.77;;;;;;;;;;6968269;28;20060;-86
2021/07/10 16:55:41;;;;;;;2.42;1.65;;;;;;;;;;6966842;28;20076;-86
2021/07/10 16:59:01;;;;;;;5.18;1.48;;;;;;;;;;6968416;28;20075;-86
2021/07/10 17:02:21;;;;;;;1.33;1.13;;;;;;;;;;6967383;28;20049;-86
2021/07/10 17:05:42;;;;;;;4.15;1.48;;;;;;;;;;6967810;28;20135;-86
2021/07/10 17:09:03;;;;;;;3.00;1.50;;;;;;;;;;6967486;28;20060;-86
2021/07/10 17:12:23;;;;;;;1.40;1.30;;;;;;;;;;6967386;28;20045;-85
2021/07/10 17:15:43;;;;;;;2.13;1.50;;;;;;;;;;6967589;28;20091;-86
2021/07/10 17:19:04;;;;;;;4.50;1.30;;;;;;;;;;6967156;28;20044;-86
2021/07/10 17:22:24;;;;;;;3.03;1.20;;;;;;;;;;6967329;28;20076;-86
2021/07/10 17:25:45;;;;;;;1.70;1.33;;;;;;;;;;6967189;28;20045;-86
2021/07/10 17:29:06;;;;;;;1.45;1.35;;;;;;;;;;6941683;28;20499;-86
2021/07/10 17:32:27;;;;;;;1.23;1.17;;;;;;;;;;6963715;28;20077;-86
2021/07/10 17:35:47;;;;;;;1.67;1.35;;;;;;;;;;6966895;28;20044;-86
2021/07/10 17:39:10;;;;;;;1.55;1.30;;;;;;;;;;6966897;28;20095;-86
2021/07/10 17:42:30;;;;;;;4.70;1.30;;;;;;;;;;6965971;28;20045;-86
2021/07/10 17:45:50;;;;;;;1.20;1.10;;;;;;;;;;6966679;28;20049;-84
2021/07/10 17:49:11;;;;;;;1.30;1.20;;;;;;;;;;6966947;28;20136;-85
2021/07/10 17:52:31;;;;;;;2.05;1.20;;;;;;;;;;6951854;28;20037;-87
2021/07/10 17:55:52;;;;;;;2.65;1.35;;;;;;;;;;6968493;28;20056;-86
2021/07/10 17:59:12;;;;;;;3.40;1.38;;;;;;;;;;6970896;28;20051;-88
2021/07/10 18:02:33;;;;;;;2.15;1.75;;;;;;;;;;6971536;28;20048;-85
2021/07/10 18:05:54;;;;;;;2.10;1.27;;;;;;;;;;6971259;28;20053;-85
2021/07/10 18:09:14;;;;;;;1.55;1.20;;;;;;;;;;6971434;28;20049;-85
2021/07/10 18:12:35;;;;;;;1.98;1.27;;;;;;;;;;6969225;28;20056;-86
2021/07/10 18:15:55;;;;;;;3.22;1.45;;;;;;;;;;6971121;28;20464;-85
2021/07/10 18:19:16;;;;;;;2.10;1.30;;;;;;;;;;6971146;28;20049;-84
2021/07/10 18:22:36;;;;;;;5.05;1.70;;;;;;;;;;6970970;28;20128;-84
2021/07/10 18:25:57;;;;;;;6.40;1.90;;;;;;;;;;6969826;28;20056;-84
2021/07/10 18:29:17;;;;;;;8.68;2.22;;;;;;;;;;6970302;28;20057;-84
2021/07/10 18:32:38;;;;;;;9.85;2.05;;;;;;;;;;6970638;28;20540;-83
2021/07/10 18:35:58;;;;;;;9.25;2.10;;;;;;;;;;6970850;28;20041;-84
2021/07/10 18:39:21;;;;;;;5.85;2.08;;;;;;;;;;6970936;28;20076;-84
2021/07/10 18:42:41;;;;;;;2.88;1.75;;;;;;;;;;6969044;28;20395;-84
2021/07/10 18:46:02;;;;;;;5.20;2.13;;;;;;;;;;6970302;28;20518;-84
2021/07/10 18:49:23;;;;;;;3.15;1.67;;;;;;;;;;6967411;28;20076;-84
2021/07/10 18:52:43;;;;;;;3.25;1.52;;;;;;;;;;6964958;28;20049;-84
2021/07/10 18:56:04;;;;;;;4.90;1.45;;;;;;;;;;6965195;28;20041;-84
2021/07/10 18:59:25;;;;;;;5.07;2.08;;;;;;;;;;6966561;28;20053;-84
2021/07/10 19:02:46;;;;;;;7.63;1.90;;;;;;;;;;6963617;28;20238;-84
2021/07/10 19:06:06;;;;;;;5.38;2.00;;;;;;;;;;6966472;28;20395;-85
2021/07/10 19:09:27;;;;;;;2.58;1.60;;;;;;;;;;6968401;28;20055;-85
2021/07/10 19:12:47;;;;;;;4.38;1.85;;;;;;;;;;6969744;28;20057;-85
2021/07/10 19:16:08;;;;;;;6.22;1.70;;;;;;;;;;6969166;28;20048;-85
2021/07/10 19:19:28;;;;;;;3.65;1.90;;;;;;;;;;6955789;28;20048;-85
2021/07/10 19:22:49;;;;;;;4.07;2.00;;;;;;;;;;6969322;28;20044;-85
2021/07/10 19:26:10;;;;;;;3.55;1.98;;;;;;;;;;6969656;28;20068;-85
2021/07/10 19:29:30;;;;;;;8.65;1.90;;;;;;;;;;6969328;28;20163;-85
2021/07/10 19:32:52;;;;;;;4.18;2.63;;;;;;;;;;6968239;28;20087;-85
2021/07/10 19:36:13;;;;;;;2.38;2.00;;;;;;;;;;6969051;28;20049;-85
2021/07/10 19:39:34;;;;;;;7.15;2.22;;;;;;;;;;6969145;28;20053;-86
2021/07/10 19:42:55;;;;;;;4.43;1.98;;;;;;;;;;6968450;28;20087;-85
2021/07/10 19:46:15;;;;;;;5.43;2.28;;;;;;;;;;6967288;28;20438;-85
2021/07/10 19:49:36;;;;;;;5.38;1.95;;;;;;;;;;6961477;28;20490;-85
2021/07/10 19:52:57;;;;;;;6.53;2.50;;;;;;;;;;6969089;28;20152;-85
2021/07/10 19:56:18;;;;;;;4.05;2.38;;;;;;;;;;6967473;28;20129;-85
2021/07/10 19:59:38;;;;;;;8.70;2.50;;;;;;;;;;6969122;28;20044;-85
2021/07/10 20:03:07;;;;;;;4.50;2.30;;;;;;;;;;6968824;28;20049;-85
2021/07/10 20:06:28;;;;;;;5.60;2.65;;;;;;;;;;6968853;28;20410;-85
2021/07/10 20:09:48;;;;;;;5.68;2.38;;;;;;;;;;6967189;28;20491;-85